sensor_id;sensor_type;location;lat;lon;timestamp;pressure;altitude;pressure_sealevel;temperature;humidity
43450;BME280;29041;42.266;23.110;2023-08-30T00:00:10;94835.25;;;22.52;97.37
43450;BME280;29041;42.266;23.110;2023-08-30T00:02:57;94837.63;;;22.50;96.84
43450;BME280;29041;42.266;23.110;2023-08-30T00:05:45;94827.09;;;21.88;100.00
43450;BME280;29041;42.266;23.110;2023-08-30T00:08:32;94833.47;;;21.58;100.00
43450;BME280;29041;42.266;23.110;2023-08-30T00:11:20;94836.19;;;21.81;100.00
43450;BME280;29041;42.266;23.110;2023-08-30T00:14:07;94845.69;;;22.17;100.00
43450;BME280;29041;42.266;23.110;2023-08-30T00:16:55;94846.19;;;22.32;99.72
43450;BME280;29041;42.266;23.110;2023-08-30T00:19:42;94843.28;;;22.19;99.40
43450;BME280;29041;42.266;23.110;2023-08-30T00:22:29;94845.44;;;21.87;100.00
43450;BME280;29041;42.266;23.110;2023-08-30T00:25:17;94835.25;;;21.68;100.00
43450;BME280;29041;42.266;23.110;2023-08-30T00:28:05;94826.69;;;21.90;100.00
43450;BME280;29041;42.266;23.110;2023-08-30T00:30:55;94814.38;;;22.01;100.00
43450;BME280;29041;42.266;23.110;2023-08-30T00:33:42;94820.25;;;22.40;100.00
43450;BME280;29041;42.266;23.110;2023-08-30T00:36:29;94837.56;;;21.69;100.00
43450;BME280;29041;42.266;23.110;2023-08-30T00:39:16;94850.41;;;21.73;100.00
43450;BME280;29041;42.266;23.110;2023-08-30T00:42:04;94834.69;;;21.53;100.00
43450;BME280;29041;42.266;23.110;2023-08-30T00:44:54;94841.22;;;21.63;100.00
43450;BME280;29041;42.266;23.110;2023-08-30T00:47:41;94842.94;;;21.26;100.00
43450;BME280;29041;42.266;23.110;2023-08-30T00:50:29;94843.66;;;21.02;100.00
43450;BME280;29041;42.266;23.110;2023-08-30T00:53:16;94855.47;;;20.96;100.00
43450;BME280;29041;42.266;23.110;2023-08-30T00:56:04;94849.47;;;21.59;100.00
43450;BME280;29041;42.266;23.110;2023-08-30T00:58:51;94864.19;;;21.38;100.00
43450;BME280;29041;42.266;23.110;2023-08-30T01:01:40;94857.63;;;20.81;100.00
43450;BME280;29041;42.266;23.110;2023-08-30T01:04:36;94854.97;;;20.73;100.00
43450;BME280;29041;42.266;23.110;2023-08-30T01:07:23;94853.09;;;20.67;100.00
43450;BME280;29041;42.266;23.110;2023-08-30T01:10:13;94853.88;;;20.98;100.00
43450;BME280;29041;42.266;23.110;2023-08-30T01:13:05;94849.66;;;20.63;100.00
43450;BME280;29041;42.266;23.110;2023-08-30T01:15:55;94848.84;;;20.66;100.00
43450;BME280;29041;42.266;23.110;2023-08-30T01:18:45;94851.63;;;20.62;100.00
43450;BME280;29041;42.266;23.110;2023-08-30T01:21:50;94854.81;;;20.53;100.00
43450;BME280;29041;42.266;23.110;2023-08-30T01:24:45;94859.78;;;20.62;100.00
43450;BME280;29041;42.266;23.110;2023-08-30T01:27:36;94853.63;;;21.16;100.00
43450;BME280;29041;42.266;23.110;2023-08-30T01:30:24;94859.34;;;20.98;100.00
43450;BME280;29041;42.266;23.110;2023-08-30T01:33:14;94852.31;;;20.66;100.00
43450;BME280;29041;42.266;23.110;2023-08-30T01:36:03;94855.84;;;20.63;100.00
43450;BME280;29041;42.266;23.110;2023-08-30T01:38:52;94853.31;;;20.49;100.00
43450;BME280;29041;42.266;23.110;2023-08-30T01:41:40;94858.84;;;20.76;100.00
43450;BME280;29041;42.266;23.110;2023-08-30T01:44:30;94867.56;;;20.95;100.00
43450;BME280;29041;42.266;23.110;2023-08-30T01:47:18;94827.09;;;21.17;100.00
43450;BME280;29041;42.266;23.110;2023-08-30T01:50:06;94860.50;;;21.24;100.00
43450;BME280;29041;42.266;23.110;2023-08-30T01:52:54;94869.06;;;20.68;100.00
43450;BME280;29041;42.266;23.110;2023-08-30T01:55:43;94863.03;;;20.50;100.00
43450;BME280;29041;42.266;23.110;2023-08-30T01:58:30;94858.19;;;20.34;100.00
43450;BME280;29041;42.266;23.110;2023-08-30T02:01:18;94865.31;;;20.24;100.00
43450;BME280;29041;42.266;23.110;2023-08-30T02:04:06;94863.31;;;19.90;100.00
43450;BME280;29041;42.266;23.110;2023-08-30T02:06:57;94861.03;;;19.85;100.00
43450;BME280;29041;42.266;23.110;2023-08-30T02:09:50;94862.59;;;19.82;100.00
43450;BME280;29041;42.266;23.110;2023-08-30T02:12:43;94853.59;;;19.89;100.00
43450;BME280;29041;42.266;23.110;2023-08-30T02:15:33;94856.25;;;19.96;100.00
43450;BME280;29041;42.266;23.110;2023-08-30T02:18:25;94857.66;;;20.08;100.00
43450;BME280;29041;42.266;23.110;2023-08-30T02:21:13;94862.63;;;19.78;100.00
43450;BME280;29041;42.266;23.110;2023-08-30T02:24:00;94857.22;;;19.75;100.00
43450;BME280;29041;42.266;23.110;2023-08-30T02:26:47;94865.28;;;19.89;100.00
43450;BME280;29041;42.266;23.110;2023-08-30T02:29:34;94850.00;;;19.99;100.00
43450;BME280;29041;42.266;23.110;2023-08-30T02:32:21;94857.56;;;20.19;100.00
43450;BME280;29041;42.266;23.110;2023-08-30T02:35:10;94835.72;;;19.88;100.00
43450;BME280;29041;42.266;23.110;2023-08-30T02:37:57;94838.72;;;19.97;100.00
43450;BME280;29041;42.266;23.110;2023-08-30T02:40:44;94837.63;;;19.91;100.00
43450;BME280;29041;42.266;23.110;2023-08-30T02:43:31;94853.72;;;20.12;100.00
43450;BME280;29041;42.266;23.110;2023-08-30T02:46:18;94840.72;;;19.93;100.00
43450;BME280;29041;42.266;23.110;2023-08-30T02:49:05;94843.78;;;19.99;100.00
43450;BME280;29041;42.266;23.110;2023-08-30T02:51:54;94846.44;;;20.06;100.00
43450;BME280;29041;42.266;23.110;2023-08-30T02:54:41;94848.78;;;20.38;100.00
43450;BME280;29041;42.266;23.110;2023-08-30T02:57:28;94837.72;;;20.18;100.00
43450;BME280;29041;42.266;23.110;2023-08-30T03:00:16;94822.91;;;19.85;100.00
43450;BME280;29041;42.266;23.110;2023-08-30T03:03:03;94831.41;;;19.90;100.00
43450;BME280;29041;42.266;23.110;2023-08-30T03:05:51;94839.19;;;20.26;100.00
43450;BME280;29041;42.266;23.110;2023-08-30T03:08:39;94834.94;;;20.22;100.00
43450;BME280;29041;42.266;23.110;2023-08-30T03:11:26;94846.81;;;20.70;100.00
43450;BME280;29041;42.266;23.110;2023-08-30T03:14:14;94857.22;;;21.10;100.00
43450;BME280;29041;42.266;23.110;2023-08-30T03:17:02;94851.56;;;20.66;100.00
43450;BME280;29041;42.266;23.110;2023-08-30T03:19:51;94845.59;;;20.43;100.00
43450;BME280;29041;42.266;23.110;2023-08-30T03:22:38;94851.47;;;20.07;100.00
43450;BME280;29041;42.266;23.110;2023-08-30T03:25:29;94857.13;;;19.86;100.00
43450;BME280;29041;42.266;23.110;2023-08-30T03:28:16;94825.94;;;19.94;100.00
43450;BME280;29041;42.266;23.110;2023-08-30T03:31:11;94822.34;;;20.35;100.00
43450;BME280;29041;42.266;23.110;2023-08-30T03:33:58;94834.50;;;20.27;100.00
43450;BME280;29041;42.266;23.110;2023-08-30T03:36:46;94840.53;;;19.69;100.00
43450;BME280;29041;42.266;23.110;2023-08-30T03:39:39;94846.78;;;20.08;100.00
43450;BME280;29041;42.266;23.110;2023-08-30T03:42:28;94839.84;;;19.61;100.00
43450;BME280;29041;42.266;23.110;2023-08-30T03:45:15;94844.75;;;19.74;100.00
43450;BME280;29041;42.266;23.110;2023-08-30T03:48:03;94845.72;;;19.53;100.00
43450;BME280;29041;42.266;23.110;2023-08-30T03:50:50;94837.41;;;19.22;100.00
43450;BME280;29041;42.266;23.110;2023-08-30T03:53:37;94867.94;;;19.47;100.00
43450;BME280;29041;42.266;23.110;2023-08-30T03:56:25;94878.09;;;19.43;100.00
43450;BME280;29041;42.266;23.110;2023-08-30T03:59:13;94892.69;;;19.64;100.00
43450;BME280;29041;42.266;23.110;2023-08-30T04:02:00;94890.47;;;19.48;100.00
43450;BME280;29041;42.266;23.110;2023-08-30T04:04:48;94912.88;;;19.70;100.00
43450;BME280;29041;42.266;23.110;2023-08-30T04:07:35;94913.13;;;19.90;100.00
43450;BME280;29041;42.266;23.110;2023-08-30T04:10:22;94905.19;;;19.58;100.00
43450;BME280;29041;42.266;23.110;2023-08-30T04:13:09;94905.31;;;19.92;100.00
43450;BME280;29041;42.266;23.110;2023-08-30T04:15:58;94921.91;;;20.05;100.00
43450;BME280;29041;42.266;23.110;2023-08-30T04:18:45;94931.41;;;19.90;100.00
43450;BME280;29041;42.266;23.110;2023-08-30T04:21:32;94918.53;;;19.41;100.00
43450;BME280;29041;42.266;23.110;2023-08-30T04:24:19;94917.56;;;19.66;100.00
43450;BME280;29041;42.266;23.110;2023-08-30T04:27:06;94923.31;;;19.75;100.00
43450;BME280;29041;42.266;23.110;2023-08-30T04:29:54;94922.19;;;19.73;100.00
43450;BME280;29041;42.266;23.110;2023-08-30T04:32:42;94937.06;;;19.61;100.00
43450;BME280;29041;42.266;23.110;2023-08-30T04:35:29;94920.25;;;19.70;100.00
43450;BME280;29041;42.266;23.110;2023-08-30T04:38:17;94932.41;;;20.10;100.00
43450;BME280;29041;42.266;23.110;2023-08-30T04:41:04;94924.06;;;19.87;100.00
43450;BME280;29041;42.266;23.110;2023-08-30T04:43:51;94931.06;;;20.60;100.00
43450;BME280;29041;42.266;23.110;2023-08-30T04:46:39;94948.06;;;19.99;100.00
43450;BME280;29041;42.266;23.110;2023-08-30T04:49:27;94939.06;;;20.06;100.00
43450;BME280;29041;42.266;23.110;2023-08-30T04:52:15;94949.47;;;20.15;100.00
43450;BME280;29041;42.266;23.110;2023-08-30T04:55:02;94942.50;;;20.86;100.00
43450;BME280;29041;42.266;23.110;2023-08-30T04:57:49;94934.28;;;20.52;100.00
43450;BME280;29041;42.266;23.110;2023-08-30T05:00:37;94946.53;;;21.05;100.00
43450;BME280;29041;42.266;23.110;2023-08-30T05:03:27;94941.38;;;20.84;100.00
43450;BME280;29041;42.266;23.110;2023-08-30T05:06:15;94925.94;;;20.66;100.00
43450;BME280;29041;42.266;23.110;2023-08-30T05:09:03;94949.50;;;20.87;100.00
43450;BME280;29041;42.266;23.110;2023-08-30T05:11:50;94945.69;;;20.77;100.00
43450;BME280;29041;42.266;23.110;2023-08-30T05:14:37;94949.59;;;21.38;100.00
43450;BME280;29041;42.266;23.110;2023-08-30T05:17:26;94955.53;;;21.33;100.00
43450;BME280;29041;42.266;23.110;2023-08-30T05:20:14;94950.09;;;22.08;94.78
43450;BME280;29041;42.266;23.110;2023-08-30T05:23:03;94948.81;;;21.93;94.72
43450;BME280;29041;42.266;23.110;2023-08-30T05:25:50;94945.66;;;21.94;92.03
43450;BME280;29041;42.266;23.110;2023-08-30T05:28:37;94942.03;;;21.77;92.60
43450;BME280;29041;42.266;23.110;2023-08-30T05:31:25;94956.09;;;21.76;90.37
43450;BME280;29041;42.266;23.110;2023-08-30T05:34:12;94955.97;;;22.30;91.11
43450;BME280;29041;42.266;23.110;2023-08-30T05:36:59;94950.50;;;22.30;88.96
43450;BME280;29041;42.266;23.110;2023-08-30T05:39:48;94929.88;;;22.49;88.76
43450;BME280;29041;42.266;23.110;2023-08-30T05:42:35;94952.53;;;22.26;89.68
43450;BME280;29041;42.266;23.110;2023-08-30T05:45:22;94973.22;;;21.80;94.95
43450;BME280;29041;42.266;23.110;2023-08-30T05:48:10;94956.69;;;22.11;92.43
43450;BME280;29041;42.266;23.110;2023-08-30T05:50:57;94974.22;;;22.13;93.75
43450;BME280;29041;42.266;23.110;2023-08-30T05:53:44;94962.59;;;21.00;98.64
43450;BME280;29041;42.266;23.110;2023-08-30T05:56:32;94963.31;;;21.04;97.98
43450;BME280;29041;42.266;23.110;2023-08-30T05:59:20;94971.94;;;21.30;96.74
43450;BME280;29041;42.266;23.110;2023-08-30T06:02:07;94965.16;;;21.96;92.01
43450;BME280;29041;42.266;23.110;2023-08-30T06:04:54;94972.91;;;21.16;93.57
43450;BME280;29041;42.266;23.110;2023-08-30T06:07:41;94973.94;;;21.53;91.45
43450;BME280;29041;42.266;23.110;2023-08-30T06:10:31;94984.59;;;21.47;91.24
43450;BME280;29041;42.266;23.110;2023-08-30T06:13:20;94981.81;;;22.02;90.19
43450;BME280;29041;42.266;23.110;2023-08-30T06:16:07;94989.66;;;22.47;86.10
43450;BME280;29041;42.266;23.110;2023-08-30T06:18:54;94993.25;;;22.64;85.31
43450;BME280;29041;42.266;23.110;2023-08-30T06:21:41;94982.81;;;22.12;89.00
43450;BME280;29041;42.266;23.110;2023-08-30T06:24:29;94980.94;;;22.09;88.26
43450;BME280;29041;42.266;23.110;2023-08-30T06:27:16;94974.28;;;22.10;89.49
43450;BME280;29041;42.266;23.110;2023-08-30T06:30:05;94983.63;;;21.61;92.44
43450;BME280;29041;42.266;23.110;2023-08-30T06:32:53;94976.41;;;21.98;90.46
43450;BME280;29041;42.266;23.110;2023-08-30T06:35:40;94983.19;;;22.38;87.38
43450;BME280;29041;42.266;23.110;2023-08-30T06:38:28;94979.97;;;22.19;89.28
43450;BME280;29041;42.266;23.110;2023-08-30T06:41:15;94970.59;;;22.20;90.84
43450;BME280;29041;42.266;23.110;2023-08-30T06:44:05;94981.25;;;22.34;89.79
43450;BME280;29041;42.266;23.110;2023-08-30T06:46:54;94978.38;;;21.98;90.28
43450;BME280;29041;42.266;23.110;2023-08-30T06:49:41;94972.16;;;22.85;86.25
43450;BME280;29041;42.266;23.110;2023-08-30T06:52:28;94976.31;;;22.73;86.12
43450;BME280;29041;42.266;23.110;2023-08-30T06:55:15;94976.03;;;22.68;88.92
43450;BME280;29041;42.266;23.110;2023-08-30T06:58:04;94975.75;;;22.82;88.11
43450;BME280;29041;42.266;23.110;2023-08-30T07:00:52;94978.97;;;22.33;88.47
43450;BME280;29041;42.266;23.110;2023-08-30T07:03:40;94981.56;;;22.64;87.41
43450;BME280;29041;42.266;23.110;2023-08-30T07:06:27;94986.53;;;22.25;87.94
43450;BME280;29041;42.266;23.110;2023-08-30T07:09:16;94982.44;;;22.13;87.71
43450;BME280;29041;42.266;23.110;2023-08-30T07:12:04;94981.91;;;22.66;86.38
43450;BME280;29041;42.266;23.110;2023-08-30T07:14:51;94985.13;;;23.41;82.04
43450;BME280;29041;42.266;23.110;2023-08-30T07:17:38;94986.66;;;23.96;80.11
43450;BME280;29041;42.266;23.110;2023-08-30T07:20:29;94975.50;;;23.13;81.46
43450;BME280;29041;42.266;23.110;2023-08-30T07:23:16;94992.56;;;23.21;82.22
43450;BME280;29041;42.266;23.110;2023-08-30T07:26:03;94990.53;;;22.85;84.28
43450;BME280;29041;42.266;23.110;2023-08-30T07:28:50;94982.91;;;22.76;85.09
43450;BME280;29041;42.266;23.110;2023-08-30T07:31:37;94978.34;;;23.46;82.56
43450;BME280;29041;42.266;23.110;2023-08-30T07:34:26;94973.44;;;23.74;82.17
43450;BME280;29041;42.266;23.110;2023-08-30T07:37:19;94978.69;;;24.64;77.57
43450;BME280;29041;42.266;23.110;2023-08-30T07:40:08;94989.19;;;24.82;74.27
43450;BME280;29041;42.266;23.110;2023-08-30T07:42:55;94981.03;;;25.21;72.48
43450;BME280;29041;42.266;23.110;2023-08-30T07:45:43;94969.59;;;24.67;74.16
43450;BME280;29041;42.266;23.110;2023-08-30T07:48:30;94984.38;;;24.40;76.13
43450;BME280;29041;42.266;23.110;2023-08-30T07:51:17;94983.19;;;25.81;68.80
43450;BME280;29041;42.266;23.110;2023-08-30T07:54:06;94980.94;;;26.63;65.24
43450;BME280;29041;42.266;23.110;2023-08-30T07:56:53;94978.16;;;26.75;64.11
43450;BME280;29041;42.266;23.110;2023-08-30T07:59:41;94983.00;;;26.71;64.86
43450;BME280;29041;42.266;23.110;2023-08-30T08:02:28;94980.41;;;26.90;65.45
43450;BME280;29041;42.266;23.110;2023-08-30T08:05:15;94982.59;;;27.49;60.58
43450;BME280;29041;42.266;23.110;2023-08-30T08:08:03;94971.31;;;29.79;54.12
43450;BME280;29041;42.266;23.110;2023-08-30T08:10:52;94970.47;;;29.11;54.73
43450;BME280;29041;42.266;23.110;2023-08-30T08:13:39;94971.13;;;26.97;58.58
43450;BME280;29041;42.266;23.110;2023-08-30T08:16:26;94983.63;;;26.05;63.97
43450;BME280;29041;42.266;23.110;2023-08-30T08:19:13;94970.28;;;26.04;63.80
43450;BME280;29041;42.266;23.110;2023-08-30T08:22:00;94983.91;;;27.35;59.94
43450;BME280;29041;42.266;23.110;2023-08-30T08:24:48;94980.19;;;26.62;62.64
43450;BME280;29041;42.266;23.110;2023-08-30T08:27:38;94970.84;;;26.82;62.45
43450;BME280;29041;42.266;23.110;2023-08-30T08:30:29;94972.53;;;26.79;59.21
43450;BME280;29041;42.266;23.110;2023-08-30T08:33:16;94967.03;;;26.44;60.22
43450;BME280;29041;42.266;23.110;2023-08-30T08:36:04;94976.03;;;27.24;52.45
43450;BME280;29041;42.266;23.110;2023-08-30T08:38:51;94970.19;;;26.20;56.60
43450;BME280;29041;42.266;23.110;2023-08-30T08:41:40;94967.84;;;26.32;57.69
43450;BME280;29041;42.266;23.110;2023-08-30T08:44:31;94963.44;;;26.91;57.75
43450;BME280;29041;42.266;23.110;2023-08-30T08:47:20;94968.84;;;26.95;56.05
43450;BME280;29041;42.266;23.110;2023-08-30T08:50:08;94975.94;;;27.37;55.75
43450;BME280;29041;42.266;23.110;2023-08-30T08:52:56;94959.81;;;26.59;59.67
43450;BME280;29041;42.266;23.110;2023-08-30T08:55:44;94964.47;;;26.85;59.64
43450;BME280;29041;42.266;23.110;2023-08-30T08:58:32;94971.66;;;27.67;56.66
43450;BME280;29041;42.266;23.110;2023-08-30T09:01:22;94962.28;;;27.55;56.51
43450;BME280;29041;42.266;23.110;2023-08-30T09:04:10;94957.97;;;28.05;52.87
43450;BME280;29041;42.266;23.110;2023-08-30T09:06:58;94951.19;;;28.84;50.49
43450;BME280;29041;42.266;23.110;2023-08-30T09:09:48;94944.66;;;29.67;47.63
43450;BME280;29041;42.266;23.110;2023-08-30T09:12:36;94945.00;;;29.07;48.87
43450;BME280;29041;42.266;23.110;2023-08-30T09:15:30;94934.53;;;31.30;41.89
43450;BME280;29041;42.266;23.110;2023-08-30T09:18:19;94934.72;;;31.92;43.40
43450;BME280;29041;42.266;23.110;2023-08-30T09:21:06;94931.03;;;32.36;40.44
43450;BME280;29041;42.266;23.110;2023-08-30T09:23:58;94931.81;;;31.51;43.13
43450;BME280;29041;42.266;23.110;2023-08-30T09:26:49;94932.78;;;31.02;40.81
43450;BME280;29041;42.266;23.110;2023-08-30T09:29:36;94916.13;;;31.98;38.72
43450;BME280;29041;42.266;23.110;2023-08-30T09:32:24;94921.13;;;31.43;40.29
43450;BME280;29041;42.266;23.110;2023-08-30T09:35:13;94927.19;;;31.27;40.76
43450;BME280;29041;42.266;23.110;2023-08-30T09:38:00;94922.66;;;30.06;43.22
43450;BME280;29041;42.266;23.110;2023-08-30T09:40:48;94907.34;;;29.96;45.32
43450;BME280;29041;42.266;23.110;2023-08-30T09:43:41;94916.19;;;29.75;47.79
43450;BME280;29041;42.266;23.110;2023-08-30T09:46:28;94910.16;;;29.53;49.05
43450;BME280;29041;42.266;23.110;2023-08-30T09:49:18;94913.34;;;29.18;47.22
43450;BME280;29041;42.266;23.110;2023-08-30T09:52:07;94916.03;;;28.65;46.95
43450;BME280;29041;42.266;23.110;2023-08-30T09:54:56;94908.97;;;28.55;48.13
43450;BME280;29041;42.266;23.110;2023-08-30T09:57:43;94901.19;;;30.40;45.36
43450;BME280;29041;42.266;23.110;2023-08-30T10:00:32;94898.16;;;29.13;47.45
43450;BME280;29041;42.266;23.110;2023-08-30T10:03:20;94888.03;;;29.53;45.66
43450;BME280;29041;42.266;23.110;2023-08-30T10:06:08;94882.75;;;29.64;48.41
43450;BME280;29041;42.266;23.110;2023-08-30T10:09:00;94880.09;;;29.03;45.71
43450;BME280;29041;42.266;23.110;2023-08-30T10:11:49;94878.28;;;29.67;46.23
43450;BME280;29041;42.266;23.110;2023-08-30T10:14:37;94880.22;;;29.51;44.19
43450;BME280;29041;42.266;23.110;2023-08-30T10:17:27;94874.78;;;29.33;43.44
43450;BME280;29041;42.266;23.110;2023-08-30T10:20:14;94872.50;;;30.52;41.27
43450;BME280;29041;42.266;23.110;2023-08-30T10:23:02;94876.44;;;30.76;39.61
43450;BME280;29041;42.266;23.110;2023-08-30T10:25:53;94877.38;;;30.88;37.86
43450;BME280;29041;42.266;23.110;2023-08-30T10:28:41;94883.59;;;30.67;38.49
43450;BME280;29041;42.266;23.110;2023-08-30T10:31:29;94868.53;;;30.44;38.34
43450;BME280;29041;42.266;23.110;2023-08-30T10:34:17;94860.94;;;30.84;38.44
43450;BME280;29041;42.266;23.110;2023-08-30T10:37:07;94847.88;;;31.50;36.07
43450;BME280;29041;42.266;23.110;2023-08-30T10:40:00;94864.88;;;31.58;36.36
43450;BME280;29041;42.266;23.110;2023-08-30T10:43:00;94849.84;;;30.69;37.27
43450;BME280;29041;42.266;23.110;2023-08-30T10:45:59;94850.59;;;30.39;36.47
43450;BME280;29041;42.266;23.110;2023-08-30T10:48:46;94861.53;;;29.95;37.66
43450;BME280;29041;42.266;23.110;2023-08-30T10:51:38;94838.25;;;29.53;38.03
43450;BME280;29041;42.266;23.110;2023-08-30T10:54:25;94847.13;;;29.66;38.87
43450;BME280;29041;42.266;23.110;2023-08-30T10:57:13;94846.81;;;30.52;35.67
43450;BME280;29041;42.266;23.110;2023-08-30T11:00:07;94842.56;;;31.01;34.42
43450;BME280;29041;42.266;23.110;2023-08-30T11:02:55;94847.97;;;30.60;35.13
43450;BME280;29041;42.266;23.110;2023-08-30T11:05:42;94845.47;;;30.77;33.55
43450;BME280;29041;42.266;23.110;2023-08-30T11:08:29;94843.97;;;31.42;32.52
43450;BME280;29041;42.266;23.110;2023-08-30T11:11:16;94835.25;;;30.83;34.67
43450;BME280;29041;42.266;23.110;2023-08-30T11:14:04;94831.41;;;31.26;32.42
43450;BME280;29041;42.266;23.110;2023-08-30T11:16:53;94840.28;;;31.00;33.88
43450;BME280;29041;42.266;23.110;2023-08-30T11:19:41;94833.03;;;31.17;34.79
43450;BME280;29041;42.266;23.110;2023-08-30T11:22:29;94834.19;;;30.81;34.21
43450;BME280;29041;42.266;23.110;2023-08-30T11:25:16;94832.78;;;30.70;34.33
43450;BME280;29041;42.266;23.110;2023-08-30T11:28:04;94828.47;;;30.54;34.17
43450;BME280;29041;42.266;23.110;2023-08-30T11:30:53;94833.81;;;30.88;33.01
43450;BME280;29041;42.266;23.110;2023-08-30T11:33:50;94831.88;;;30.49;33.98
43450;BME280;29041;42.266;23.110;2023-08-30T11:36:38;94818.91;;;30.85;33.05
43450;BME280;29041;42.266;23.110;2023-08-30T11:39:28;94820.91;;;31.15;32.50
43450;BME280;29041;42.266;23.110;2023-08-30T11:42:15;94817.84;;;30.98;31.38
43450;BME280;29041;42.266;23.110;2023-08-30T11:45:03;94808.44;;;31.61;31.13
43450;BME280;29041;42.266;23.110;2023-08-30T11:47:50;94806.94;;;31.80;30.01
43450;BME280;29041;42.266;23.110;2023-08-30T11:50:40;94815.63;;;31.17;30.22
43450;BME280;29041;42.266;23.110;2023-08-30T11:53:28;94807.72;;;31.81;30.61
43450;BME280;29041;42.266;23.110;2023-08-30T11:56:16;94797.53;;;31.72;30.90
43450;BME280;29041;42.266;23.110;2023-08-30T11:59:03;94797.53;;;31.72;29.98
43450;BME280;29041;42.266;23.110;2023-08-30T12:01:52;94811.22;;;31.25;29.35
43450;BME280;29041;42.266;23.110;2023-08-30T12:04:40;94791.91;;;31.31;29.19
43450;BME280;29041;42.266;23.110;2023-08-30T12:07:29;94799.41;;;31.45;29.15
43450;BME280;29041;42.266;23.110;2023-08-30T12:10:18;94792.44;;;31.71;28.38
43450;BME280;29041;42.266;23.110;2023-08-30T12:13:06;94785.75;;;31.62;28.38
43450;BME280;29041;42.266;23.110;2023-08-30T12:15:55;94790.72;;;31.94;27.56
43450;BME280;29041;42.266;23.110;2023-08-30T12:18:42;94793.84;;;31.25;28.67
43450;BME280;29041;42.266;23.110;2023-08-30T12:21:39;94781.09;;;30.82;29.16
43450;BME280;29041;42.266;23.110;2023-08-30T12:24:27;94780.81;;;30.65;29.28
43450;BME280;29041;42.266;23.110;2023-08-30T12:27:15;94774.13;;;30.72;29.64
43450;BME280;29041;42.266;23.110;2023-08-30T12:30:02;94755.72;;;31.05;27.10
43450;BME280;29041;42.266;23.110;2023-08-30T12:32:49;94767.44;;;31.50;27.20
43450;BME280;29041;42.266;23.110;2023-08-30T12:35:36;94757.69;;;31.75;27.98
43450;BME280;29041;42.266;23.110;2023-08-30T12:38:24;94768.09;;;32.01;26.95
43450;BME280;29041;42.266;23.110;2023-08-30T12:41:13;94752.50;;;32.62;26.64
43450;BME280;29041;42.266;23.110;2023-08-30T12:44:00;94762.34;;;32.31;25.31
43450;BME280;29041;42.266;23.110;2023-08-30T12:46:49;94765.78;;;32.00;25.77
43450;BME280;29041;42.266;23.110;2023-08-30T12:49:36;94772.66;;;30.92;26.58
43450;BME280;29041;42.266;23.110;2023-08-30T12:52:23;94761.16;;;31.49;26.62
43450;BME280;29041;42.266;23.110;2023-08-30T12:55:11;94756.88;;;32.16;25.97
43450;BME280;29041;42.266;23.110;2023-08-30T12:57:59;94763.94;;;32.17;25.24
43450;BME280;29041;42.266;23.110;2023-08-30T13:00:47;94765.59;;;30.91;23.97
43450;BME280;29041;42.266;23.110;2023-08-30T13:03:34;94763.59;;;30.76;24.70
43450;BME280;29041;42.266;23.110;2023-08-30T13:06:21;94769.06;;;30.70;24.94
43450;BME280;29041;42.266;23.110;2023-08-30T13:09:08;94761.91;;;30.79;25.26
43450;BME280;29041;42.266;23.110;2023-08-30T13:11:55;94763.13;;;30.33;25.26
43450;BME280;29041;42.266;23.110;2023-08-30T13:14:44;94757.97;;;30.26;25.12
43450;BME280;29041;42.266;23.110;2023-08-30T13:17:31;94764.19;;;30.20;24.88
43450;BME280;29041;42.266;23.110;2023-08-30T13:20:18;94765.97;;;30.23;26.24
43450;BME280;29041;42.266;23.110;2023-08-30T13:23:05;94762.00;;;30.54;26.23
43450;BME280;29041;42.266;23.110;2023-08-30T13:25:52;94758.34;;;30.78;24.94
43450;BME280;29041;42.266;23.110;2023-08-30T13:28:39;94758.81;;;30.92;24.34
43450;BME280;29041;42.266;23.110;2023-08-30T13:31:28;94746.63;;;30.38;24.82
43450;BME280;29041;42.266;23.110;2023-08-30T13:34:15;94750.63;;;30.67;24.33
43450;BME280;29041;42.266;23.110;2023-08-30T13:37:02;94752.03;;;30.93;24.51
43450;BME280;29041;42.266;23.110;2023-08-30T13:39:52;94753.00;;;30.75;25.67
43450;BME280;29041;42.266;23.110;2023-08-30T13:42:40;94750.53;;;31.48;24.83
43450;BME280;29041;42.266;23.110;2023-08-30T13:45:27;94740.13;;;31.43;22.38
43450;BME280;29041;42.266;23.110;2023-08-30T13:48:15;94754.31;;;31.30;22.66
43450;BME280;29041;42.266;23.110;2023-08-30T13:51:03;94753.91;;;31.16;23.31
43450;BME280;29041;42.266;23.110;2023-08-30T13:53:50;94754.97;;;31.04;23.73
43450;BME280;29041;42.266;23.110;2023-08-30T13:56:37;94756.06;;;31.27;24.04
43450;BME280;29041;42.266;23.110;2023-08-30T13:59:25;94764.28;;;30.86;26.06
43450;BME280;29041;42.266;23.110;2023-08-30T14:02:14;94739.47;;;30.62;25.11
43450;BME280;29041;42.266;23.110;2023-08-30T14:05:03;94758.19;;;30.52;24.53
43450;BME280;29041;42.266;23.110;2023-08-30T14:07:51;94764.66;;;30.34;25.49
43450;BME280;29041;42.266;23.110;2023-08-30T14:10:38;94754.63;;;30.36;25.37
43450;BME280;29041;42.266;23.110;2023-08-30T14:13:25;94768.50;;;30.51;25.73
43450;BME280;29041;42.266;23.110;2023-08-30T14:16:14;94773.56;;;30.53;25.69
43450;BME280;29041;42.266;23.110;2023-08-30T14:19:01;94763.91;;;30.33;26.00
43450;BME280;29041;42.266;23.110;2023-08-30T14:21:52;94781.19;;;29.89;26.38
43450;BME280;29041;42.266;23.110;2023-08-30T14:24:41;94790.03;;;30.02;26.46
43450;BME280;29041;42.266;23.110;2023-08-30T14:27:28;94790.19;;;29.99;26.47
43450;BME280;29041;42.266;23.110;2023-08-30T14:30:16;94787.28;;;30.47;26.93
43450;BME280;29041;42.266;23.110;2023-08-30T14:33:03;94781.06;;;30.37;26.88